Time;durP1;ratioP1;P1;durP2;ratioP2;P2;SDS_P1;SDS_P2;PMS_P1;PMS_P2;Temp;Humidity;BMP_temperature;BMP_pressure;BME280_temperature;BME280_humidity;BME280_pressure;Samples;Min_cycle;Max_cycle;Signal;HPM_P1;HPM_P2
2021/12/02 00:01:40;;;;;;;20.40;4.38;;;;;;;3.22;98.27;99767.06;5195271;28;20037;-73
2021/12/02 00:04:11;;;;;;;11.83;3.93;;;;;;;3.16;98.75;99777.38;5196094;28;20430;-73
2021/12/02 00:06:43;;;;;;;16.17;3.50;;;;;;;3.16;99.31;99779.94;5208265;28;20064;-74
2021/12/02 00:09:14;;;;;;;9.97;3.37;;;;;;;3.19;99.45;99783.38;5218359;28;20093;-78
2021/12/02 00:11:46;;;;;;;10.30;3.00;;;;;;;3.23;99.61;99782.50;5218492;28;20124;-74
2021/12/02 00:14:24;;;;;;;12.98;3.75;;;;;;;3.27;99.36;99786.81;5218349;28;20390;-80
2021/12/02 00:22:24;;;;;;;9.27;3.25;;;;;;;3.28;99.91;99796.28;5218613;28;20120;-76
2021/12/02 00:25:01;;;;;;;13.60;3.25;;;;;;;3.25;99.60;99785.09;5218991;28;20014;-73
2021/12/02 00:27:33;;;;;;;12.77;2.80;;;;;;;3.21;99.09;99791.97;5218934;28;20407;-72
2021/12/02 00:30:05;;;;;;;14.80;3.63;;;;;;;3.22;98.71;99795.38;5217792;28;20405;-71
2021/12/02 00:32:39;;;;;;;14.35;3.20;;;;;;;3.22;99.06;99790.22;5222909;28;20124;-75
2021/12/02 00:35:11;;;;;;;8.60;2.40;;;;;;;3.23;99.22;99791.97;5222333;28;20060;-72
2021/12/02 00:37:44;;;;;;;11.00;3.30;;;;;;;3.23;98.85;99784.25;5222990;28;20057;-71
2021/12/02 00:40:15;;;;;;;10.98;3.10;;;;;;;3.23;98.89;99784.25;5222931;28;20076;-76
2021/12/02 00:42:48;;;;;;;10.10;2.70;;;;;;;3.23;99.47;99784.25;5217782;28;20029;-72
2021/12/02 00:45:19;;;;;;;11.88;2.65;;;;;;;3.19;99.79;99778.22;5215889;28;20030;-77
2021/12/02 00:47:52;;;;;;;8.13;2.67;;;;;;;3.18;100.00;99778.22;5217011;28;20037;-72
2021/12/02 00:50:24;;;;;;;15.40;4.18;;;;;;;3.15;100.00;99773.91;5215637;28;20069;-71
2021/12/02 00:52:56;;;;;;;16.70;3.03;;;;;;;3.16;100.00;99773.06;5216333;28;20065;-71
2021/12/02 00:55:28;;;;;;;11.20;2.88;;;;;;;3.14;100.00;99769.66;5216222;28;20030;-71
2021/12/02 00:58:00;;;;;;;11.77;2.90;;;;;;;3.16;100.00;99782.53;5242879;28;20514;-72
2021/12/02 01:00:33;;;;;;;12.00;2.67;;;;;;;3.17;100.00;99774.81;5257053;28;20036;-72
2021/12/02 01:03:06;;;;;;;15.60;3.33;;;;;;;3.21;100.00;99768.78;5259907;28;20025;-72
2021/12/02 01:05:39;;;;;;;;;;;;;;;3.22;100.00;99770.50;5264510;28;20025;-71
2021/12/02 01:08:12;;;;;;;9.48;2.42;;;;;;;3.22;100.00;99777.34;5264238;28;19960;-72
2021/12/02 01:10:43;;;;;;;12.07;3.22;;;;;;;3.21;100.00;99771.34;5260387;28;20033;-70
2021/12/02 01:13:16;;;;;;;13.30;3.33;;;;;;;3.21;100.00;99779.09;5258786;28;20040;-74
2021/12/02 01:15:48;;;;;;;12.20;3.13;;;;;;;3.22;100.00;99788.53;5239442;28;20211;-74
2021/12/02 01:18:21;;;;;;;16.20;4.45;;;;;;;3.25;100.00;99785.09;5256839;28;20028;-78
2021/12/02 01:20:53;;;;;;;7.80;2.30;;;;;;;3.31;100.00;99776.53;5256468;28;20036;-83
2021/12/02 01:23:27;;;;;;;12.95;2.70;;;;;;;3.33;100.00;99782.53;5256974;28;20417;-78
2021/12/02 01:26:05;;;;;;;12.00;4.00;;;;;;;3.30;100.00;99796.28;5238365;28;20123;-82
2021/12/02 01:28:37;;;;;;;6.75;2.00;;;;;;;3.28;100.00;99795.41;5238307;28;20040;-69
2021/12/02 01:31:11;;;;;;;10.75;3.10;;;;;;;3.32;99.93;99778.22;5255535;28;20036;-76
2021/12/02 01:33:45;;;;;;;10.30;2.50;;;;;;;3.23;100.00;99787.66;5256042;28;20033;-76
2021/12/02 01:36:19;;;;;;;11.02;2.47;;;;;;;3.14;100.00;99787.69;5256981;28;20039;-74
2021/12/02 01:38:52;;;;;;;6.68;1.95;;;;;;;3.09;100.00;99799.66;5258169;28;20017;-80
2021/12/02 01:41:23;;;;;;;;;;;;;;;3.03;100.00;99800.53;5257602;28;20029;-71
2021/12/02 01:43:55;;;;;;;8.48;2.50;;;;;;;2.96;100.00;99798.78;5257765;28;20439;-75
2021/12/02 01:46:27;;;;;;;6.20;2.07;;;;;;;2.91;100.00;99805.63;5258826;28;20035;-71
2021/12/02 01:49:03;;;;;;;11.53;2.63;;;;;;;2.86;100.00;99797.03;5261622;28;20028;-71
2021/12/02 01:51:46;;;;;;;5.70;2.22;;;;;;;2.86;100.00;99795.31;5261465;28;20044;-70
2021/12/02 01:54:23;;;;;;;9.88;2.35;;;;;;;2.84;100.00;99799.59;5257342;28;20044;-72
2021/12/02 01:57:07;;;;;;;12.80;2.65;;;;;;;2.78;100.00;99797.00;5255544;28;20041;-71
2021/12/02 01:59:39;;;;;;;9.95;2.80;;;;;;;2.77;100.00;99797.88;5256252;28;20035;-70
2021/12/02 02:02:11;;;;;;;8.43;2.80;;;;;;;2.75;100.00;99791.84;5255196;28;20119;-71
2021/12/02 02:04:42;;;;;;;6.30;2.80;;;;;;;2.69;100.00;99784.13;5255633;28;20032;-72
2021/12/02 02:07:15;;;;;;;10.57;2.70;;;;;;;2.64;100.00;99798.69;5255832;28;20036;-73
2021/12/02 02:09:46;;;;;;;8.02;3.22;;;;;;;2.59;100.00;99790.94;5256410;28;20043;-79
2021/12/02 02:12:19;;;;;;;9.60;2.70;;;;;;;2.53;100.00;99794.38;5256169;28;20025;-75
2021/12/02 02:14:51;;;;;;;;;;;;;;;2.46;100.00;99800.31;5256341;28;20059;-71
2021/12/02 02:17:25;;;;;;;8.75;2.40;;;;;;;2.44;100.00;99799.47;5256759;28;19920;-81
2021/12/02 02:19:58;;;;;;;8.05;2.33;;;;;;;2.39;100.00;99801.16;5255168;28;20036;-72
2021/12/02 02:22:30;;;;;;;7.95;2.30;;;;;;;2.29;100.00;99804.56;5255623;28;20203;-71
2021/12/02 02:25:02;;;;;;;3.97;1.80;;;;;;;2.26;100.00;99800.25;5255145;28;20025;-78
2021/12/02 02:27:34;;;;;;;6.55;2.55;;;;;;;2.19;100.00;99799.34;5256177;28;20029;-77
2021/12/02 02:30:08;;;;;;;7.97;2.30;;;;;;;2.20;100.00;99787.34;5255550;28;20105;-72
2021/12/02 02:32:40;;;;;;;9.48;2.35;;;;;;;2.19;100.00;99791.63;5256136;28;20453;-72
2021/12/02 02:35:12;;;;;;;7.43;3.22;;;;;;;2.16;100.00;99786.47;5255162;28;20074;-72
2021/12/02 02:37:45;;;;;;;10.87;3.27;;;;;;;2.16;100.00;99791.63;5255777;28;20079;-72
2021/12/02 02:40:17;;;;;;;6.03;2.40;;;;;;;2.21;100.00;99795.91;5255160;28;20491;-81
2021/12/02 02:42:56;;;;;;;8.70;2.83;;;;;;;2.24;100.00;99801.94;5255595;28;20037;-74
2021/12/02 02:45:28;;;;;;;8.30;2.22;;;;;;;2.30;100.00;99795.97;5255348;28;20106;-76
2021/12/02 02:48:00;;;;;;;6.70;2.17;;;;;;;2.30;100.00;99798.53;5256634;28;20024;-71
2021/12/02 02:50:32;;;;;;;9.77;2.20;;;;;;;2.26;100.00;99800.25;5257166;28;20197;-76
2021/12/02 02:53:07;;;;;;;;;;;;;;;2.25;100.00;99789.94;5257918;28;20067;-77
2021/12/02 02:55:40;;;;;;;6.75;2.00;;;;;;;2.17;100.00;99795.03;5255879;28;19944;-71
2021/12/02 02:59:22;;;;;;;5.60;2.28;;;;;;;2.14;100.00;99792.44;5261094;28;20401;-71
2021/12/02 03:01:34;;;;;;;11.00;2.00;;;;;;;2.18;100.00;99801.91;5246094;28;20049;-69
2021/12/02 03:07:12;;;;;;;13.10;2.17;;;;;;;2.05;100.00;99800.97;5258853;28;20499;-79
2021/12/02 03:12:42;;;;;;;16.65;2.53;;;;;;;1.96;100.00;99793.22;5256667;28;20044;-71
2021/12/02 03:17:45;;;;;;;8.10;2.23;;;;;;;1.92;100.00;99799.19;5255891;28;20063;-71
2021/12/02 03:20:17;;;;;;;9.82;2.28;;;;;;;1.97;100.00;99798.34;5256104;28;20068;-71
2021/12/02 03:22:49;;;;;;;10.30;4.10;;;;;;;2.04;100.00;99808.69;5259302;28;20033;-70
2021/12/02 03:25:20;;;;;;;12.67;2.60;;;;;;;2.07;100.00;99803.56;5259465;28;20036;-77
2021/12/02 03:27:52;;;;;;;5.27;2.33;;;;;;;2.09;100.00;99801.84;5259903;28;20071;-71
2021/12/02 03:30:23;;;;;;;10.98;2.83;;;;;;;2.12;100.00;99805.28;5259350;28;20131;-71
2021/12/02 03:32:55;;;;;;;10.60;3.07;;;;;;;2.17;100.00;99813.91;5260242;28;20041;-73
2021/12/02 03:35:26;;;;;;;11.90;2.60;;;;;;;2.22;100.00;99813.06;5258907;28;20104;-76
2021/12/02 03:37:57;;;;;;;9.27;2.60;;;;;;;2.28;100.00;99821.66;5259261;28;20037;-80
2021/12/02 03:40:29;;;;;;;17.33;2.97;;;;;;;2.28;100.00;99820.81;5258284;28;20166;-77
2021/12/02 03:43:00;;;;;;;11.90;2.53;;;;;;;2.27;100.00;99825.13;5258928;28;20021;-77
2021/12/02 03:45:32;;;;;;;9.47;2.77;;;;;;;2.26;100.00;99825.09;5258562;28;20558;-72
2021/12/02 03:48:04;;;;;;;11.65;3.20;;;;;;;2.27;100.00;99834.53;5259209;28;20029;-72
2021/12/02 03:50:35;;;;;;;6.67;2.10;;;;;;;2.29;100.00;99836.25;5259523;28;20024;-71
2021/12/02 03:53:12;;;;;;;9.05;3.17;;;;;;;2.21;100.00;99829.34;5260300;28;20874;-84
2021/12/02 03:55:43;;;;;;;4.30;1.90;;;;;;;2.14;100.00;99823.31;5260669;28;20041;-71
2021/12/02 03:58:14;;;;;;;8.70;1.97;;;;;;;2.13;100.00;99814.75;5264762;28;20056;-74
2021/12/02 04:00:46;;;;;;;7.43;2.10;;;;;;;2.08;100.00;99820.72;5265143;28;20036;-75
2021/12/02 04:03:17;;;;;;;13.03;2.20;;;;;;;2.04;100.00;99817.25;5264076;28;20082;-74
2021/12/02 04:05:49;;;;;;;8.03;2.17;;;;;;;1.99;100.00;99816.38;5260777;28;20118;-71
2021/12/02 04:08:27;;;;;;;9.30;3.17;;;;;;;1.90;100.00;99812.03;5262954;28;20021;-71
2021/12/02 04:11:17;;;;;;;11.30;2.60;;;;;;;1.85;100.00;99816.25;5263305;28;20448;-76
2021/12/02 04:14:11;;;;;;;11.23;2.30;;;;;;;1.88;100.00;99812.88;5258966;28;20037;-75
2021/12/02 04:16:52;;;;;;;12.70;2.97;;;;;;;1.90;100.00;99821.44;5258332;28;20035;-72
2021/12/02 04:19:24;;;;;;;8.85;2.10;;;;;;;1.95;100.00;99823.19;5258144;28;20029;-72
2021/12/02 04:21:58;;;;;;;8.20;2.67;;;;;;;1.99;100.00;99798.38;5260349;28;20102;-73
2021/12/02 04:24:29;;;;;;;9.63;2.58;;;;;;;1.94;100.00;99808.63;5257963;28;20024;-71
2021/12/02 04:27:01;;;;;;;6.27;2.10;;;;;;;1.89;100.00;99815.44;5258543;28;20082;-73
2021/12/02 04:29:32;;;;;;;12.90;2.83;;;;;;;1.86;100.00;99812.00;5257850;28;20040;-72
2021/12/02 04:32:04;;;;;;;6.17;2.00;;;;;;;1.83;100.00;99807.69;5258797;28;20028;-72
2021/12/02 04:34:36;;;;;;;7.20;2.07;;;;;;;1.82;100.00;99808.56;5258771;28;20056;-73
2021/12/02 04:37:07;;;;;;;9.97;2.23;;;;;;;1.81;100.00;99809.41;5259382;28;20039;-71
2021/12/02 04:39:38;;;;;;;7.83;1.90;;;;;;;1.82;100.00;99822.25;5257215;28;20127;-81
2021/12/02 04:42:09;;;;;;;11.60;2.60;;;;;;;1.83;100.00;99828.25;5257668;28;20540;-74
2021/12/02 04:44:41;;;;;;;7.63;1.87;;;;;;;1.90;100.00;99836.84;5257963;28;20028;-71
2021/12/02 04:47:12;;;;;;;10.67;1.90;;;;;;;1.90;100.00;99835.16;5258165;28;20048;-71
2021/12/02 04:49:44;;;;;;;9.40;2.63;;;;;;;1.95;100.00;99840.34;5258604;28;20574;-71
2021/12/02 04:52:16;;;;;;;8.25;2.40;;;;;;;2.00;100.00;99844.66;5272916;28;20025;-74
2021/12/02 04:54:48;;;;;;;7.80;2.87;;;;;;;2.02;100.00;99844.66;5257545;28;20827;-70
2021/12/02 04:57:19;;;;;;;8.73;2.20;;;;;;;1.97;100.00;99848.91;5256756;28;20306;-76
2021/12/02 04:59:51;;;;;;;12.10;2.40;;;;;;;1.92;100.00;99842.88;5257034;28;20037;-76
2021/12/02 05:02:23;;;;;;;11.13;2.93;;;;;;;1.89;100.00;99846.28;5258098;28;20037;-70
2021/12/02 05:04:54;;;;;;;7.20;2.07;;;;;;;1.89;100.00;99841.16;5257675;28;20503;-72
2021/12/02 05:07:25;;;;;;;8.67;2.60;;;;;;;1.94;100.00;99848.91;5258513;28;20444;-82
2021/12/02 05:09:57;;;;;;;9.70;3.37;;;;;;;1.86;100.00;99850.53;5258466;28;20035;-75
2021/12/02 05:12:28;;;;;;;7.27;3.27;;;;;;;1.90;100.00;99848.03;5259474;28;20132;-81
2021/12/02 05:15:01;;;;;;;7.27;2.27;;;;;;;1.93;100.00;99860.00;5260152;28;20477;-72
2021/12/02 05:17:32;;;;;;;;;;;;;;;1.94;100.00;99866.88;5261694;28;20067;-69
2021/12/02 05:20:05;;;;;;;13.70;4.15;;;;;;;1.93;100.00;99867.72;5266986;28;19921;-71
2021/12/02 05:22:37;;;;;;;13.35;3.17;;;;;;;1.91;100.00;99879.72;5265278;28;20025;-71
2021/12/02 05:25:09;;;;;;;7.27;2.83;;;;;;;1.86;100.00;99865.97;5260669;28;20044;-73
2021/12/02 05:27:40;;;;;;;3.58;1.63;;;;;;;1.72;100.00;99878.69;5240643;28;20041;-73
2021/12/02 05:30:12;;;;;;;10.20;3.07;;;;;;;1.68;100.00;99887.25;5258682;28;20440;-72
2021/12/02 05:32:43;;;;;;;6.10;1.70;;;;;;;1.52;100.00;99884.50;5258125;28;20102;-70
2021/12/02 05:35:15;;;;;;;7.13;1.17;;;;;;;1.47;100.00;99875.06;5257495;28;20037;-74
2021/12/02 05:37:46;;;;;;;3.53;1.23;;;;;;;1.33;100.00;99864.63;5260499;28;20063;-73
2021/12/02 05:40:17;;;;;;;5.20;1.60;;;;;;;1.20;100.00;99868.78;5263824;28;20040;-74
2021/12/02 05:42:52;;;;;;;6.63;1.77;;;;;;;1.05;100.00;99867.78;5262658;28;20032;-73
2021/12/02 05:45:23;;;;;;;6.47;1.20;;;;;;;1.00;100.00;99863.41;5264174;28;20044;-74
2021/12/02 05:47:55;;;;;;;8.57;1.77;;;;;;;1.02;100.00;99870.31;5264677;28;20033;-72
2021/12/02 05:50:26;;;;;;;5.50;1.40;;;;;;;1.05;100.00;99869.50;5267019;28;20032;-79
2021/12/02 05:52:58;;;;;;;8.30;1.87;;;;;;;1.07;100.00;99888.31;5265399;28;20029;-74
2021/12/02 05:55:29;;;;;;;8.03;1.87;;;;;;;1.12;100.00;99896.94;5263321;28;20098;-85
2021/12/02 05:58:00;;;;;;;3.83;1.30;;;;;;;1.17;100.00;99891.84;5264268;28;20049;-73
2021/12/02 06:00:33;;;;;;;4.97;1.40;;;;;;;1.15;100.00;99890.97;5261274;28;20496;-79
2021/12/02 06:03:04;;;;;;;3.60;1.20;;;;;;;1.14;100.00;99882.41;5269398;28;20016;-78
2021/12/02 06:05:36;;;;;;;3.57;1.13;;;;;;;1.09;100.00;99871.22;5267602;28;20028;-73
2021/12/02 06:08:07;;;;;;;3.43;1.23;;;;;;;0.99;100.00;99870.28;5226414;28;20086;-85
2021/12/02 06:10:39;;;;;;;4.73;1.17;;;;;;;0.89;100.00;99873.59;5260928;28;20025;-73
2021/12/02 06:13:11;;;;;;;6.40;1.10;;;;;;;0.81;100.00;99867.50;5260412;28;20090;-71
2021/12/02 06:15:42;;;;;;;5.90;1.50;;;;;;;0.75;100.00;99875.13;5264069;28;20025;-81
2021/12/02 06:18:13;;;;;;;10.00;1.50;;;;;;;0.69;100.00;99873.31;5261345;28;20036;-75
2021/12/02 06:20:51;;;;;;;2.50;1.20;;;;;;;0.66;100.00;99875.84;5262970;28;20025;-74
2021/12/02 06:23:23;;;;;;;4.45;1.23;;;;;;;0.64;100.00;99880.09;5266149;28;20136;-73
2021/12/02 06:25:54;;;;;;;4.07;1.38;;;;;;;0.62;100.00;99881.78;5268126;28;20426;-75
2021/12/02 06:28:26;;;;;;;4.03;1.60;;;;;;;0.64;100.00;99885.22;5268363;28;20024;-72
2021/12/02 06:31:01;;;;;;;3.42;1.25;;;;;;;0.73;100.00;99896.47;5270738;28;20029;-72
2021/12/02 06:33:33;;;;;;;8.73;2.40;;;;;;;0.78;100.00;99900.81;5268318;28;20044;-75
2021/12/02 06:36:04;;;;;;;2.73;1.33;;;;;;;0.86;100.00;99896.63;5268564;28;20028;-74
2021/12/02 06:38:36;;;;;;;7.20;2.03;;;;;;;0.90;100.00;99896.69;5267416;28;20119;-72
2021/12/02 06:41:09;;;;;;;5.47;1.57;;;;;;;0.92;100.00;99889.03;5269143;28;20028;-76
2021/12/02 06:43:40;;;;;;;7.95;1.73;;;;;;;0.87;100.00;99882.94;5269156;28;20025;-90
2021/12/02 06:46:11;;;;;;;6.73;1.77;;;;;;;0.81;100.00;99890.59;5268105;28;20059;-74
2021/12/02 06:48:43;;;;;;;8.17;1.80;;;;;;;0.82;100.00;99877.78;5267873;28;20029;-72
2021/12/02 06:51:17;;;;;;;7.10;1.97;;;;;;;0.82;100.00;99892.28;5266971;28;20032;-73
2021/12/02 06:53:49;;;;;;;7.22;2.40;;;;;;;0.88;100.00;99893.22;5264885;28;20025;-75
2021/12/02 06:56:21;;;;;;;8.20;3.20;;;;;;;0.98;100.00;99921.56;5268021;28;20484;-82
2021/12/02 06:58:52;;;;;;;10.03;3.60;;;;;;;1.01;100.00;99925.03;5265614;28;20045;-77
2021/12/02 07:01:23;;;;;;;10.20;4.57;;;;;;;1.06;100.00;99915.72;5264330;28;20472;-74
2021/12/02 07:03:55;;;;;;;9.57;4.57;;;;;;;1.13;100.00;99936.28;5264972;28;20480;-89
2021/12/02 07:06:26;;;;;;;8.77;4.20;;;;;;;1.17;100.00;99930.34;5265051;28;20025;-73
2021/12/02 07:08:59;;;;;;;12.97;4.50;;;;;;;1.20;100.00;99936.38;5265529;28;20029;-78
2021/12/02 07:11:30;;;;;;;7.80;3.50;;;;;;;1.21;100.00;99940.69;5265955;28;20098;-73
2021/12/02 07:14:08;;;;;;;8.60;3.60;;;;;;;1.27;100.00;99945.00;5269864;28;20092;-73
2021/12/02 07:16:39;;;;;;;9.77;3.47;;;;;;;1.31;100.00;99949.34;5273516;28;20037;-75
2021/12/02 07:19:11;;;;;;;8.73;3.40;;;;;;;1.34;100.00;99953.69;5274412;28;20048;-82
2021/12/02 07:21:44;;;;;;;7.25;3.88;;;;;;;1.41;100.00;99947.75;5272449;28;20025;-75
2021/12/02 07:24:16;;;;;;;13.63;4.20;;;;;;;1.40;100.00;99954.59;5273561;28;20507;-73
2021/12/02 07:26:47;;;;;;;8.93;3.92;;;;;;;1.42;100.00;99958.03;5269114;28;20119;-76
2021/12/02 07:29:19;;;;;;;7.57;3.83;;;;;;;1.44;100.00;99963.19;5266314;28;20388;-90
2021/12/02 07:31:51;;;;;;;8.37;3.40;;;;;;;1.43;100.00;99966.59;5267731;28;20044;-75
2021/12/02 07:34:23;;;;;;;27.17;7.15;;;;;;;1.41;100.00;99963.16;5270806;28;20059;-74
2021/12/02 07:36:56;;;;;;;9.48;2.92;;;;;;;1.41;100.00;99965.72;5270743;28;20021;-72
2021/12/02 07:39:29;;;;;;;4.65;2.55;;;;;;;1.37;100.00;99964.84;5273607;28;20029;-74
2021/12/02 07:42:01;;;;;;;11.10;2.80;;;;;;;1.37;100.00;99976.78;5274151;28;20362;-76
2021/12/02 07:44:35;;;;;;;8.43;3.03;;;;;;;1.36;100.00;99983.66;5269859;28;20075;-84
2021/12/02 07:47:07;;;;;;;31.73;5.60;;;;;;;1.39;100.00;99978.53;5271836;28;20021;-88
2021/12/02 07:49:39;;;;;;;7.60;3.17;;;;;;;1.41;100.00;99979.41;5270622;28;20071;-85
2021/12/02 07:52:13;;;;;;;8.37;3.47;;;;;;;1.42;100.00;99972.59;5270161;28;20036;-79
2021/12/02 07:54:46;;;;;;;11.77;3.50;;;;;;;1.39;100.00;99980.25;5274657;28;20021;-77
2021/12/02 07:57:18;;;;;;;9.10;3.50;;;;;;;1.34;100.00;99974.22;5272962;28;20048;-75
2021/12/02 07:59:52;;;;;;;9.25;2.88;;;;;;;1.28;100.00;99985.25;5275261;28;20025;-77
2021/12/02 08:02:28;;;;;;;13.45;3.75;;;;;;;1.23;100.00;99987.78;5273435;28;20054;-77
2021/12/02 08:04:59;;;;;;;8.40;2.90;;;;;;;1.18;100.00;99986.00;5274824;28;20375;-74
2021/12/02 08:07:33;;;;;;;7.60;3.17;;;;;;;1.18;100.00;99986.84;5257769;28;20033;-74
2021/12/02 08:10:05;;;;;;;12.05;4.03;;;;;;;1.17;100.00;99986.84;5273386;28;20040;-73
2021/12/02 08:12:38;;;;;;;;;;;;;;;1.13;100.00;99992.75;5269593;28;20052;-82
2021/12/02 08:15:09;;;;;;;7.53;4.10;;;;;;;1.09;100.00;99995.31;5266215;28;19978;-75
2021/12/02 08:17:41;;;;;;;10.17;4.53;;;;;;;1.06;100.00;99999.53;5265520;28;20037;-83
2021/12/02 08:20:14;;;;;;;9.63;4.73;;;;;;;1.02;100.00;100002.91;5264770;28;20033;-90
2021/12/02 08:22:47;;;;;;;10.38;4.57;;;;;;;0.99;100.00;100003.72;5246443;28;20067;-78
2021/12/02 08:25:20;;;;;;;10.13;5.10;;;;;;;0.96;100.00;100013.09;5265465;28;20495;-87
2021/12/02 08:27:53;;;;;;;9.25;5.03;;;;;;;0.91;100.00;100010.44;5263623;28;20057;-75
2021/12/02 08:30:26;;;;;;;11.50;5.68;;;;;;;0.88;100.00;100005.28;5266058;28;20111;-77
2021/12/02 08:32:58;;;;;;;9.50;5.72;;;;;;;0.87;100.00;100004.41;5264213;28;20062;-82
2021/12/02 08:35:30;;;;;;;18.05;6.57;;;;;;;0.87;100.00;100013.81;5263479;28;20025;-74
2021/12/02 08:38:11;;;;;;;9.18;5.45;;;;;;;1.01;100.00;100007.16;5264830;28;20335;-82
2021/12/02 08:40:46;;;;;;;10.25;5.35;;;;;;;1.09;100.00;100009.84;5264191;28;20029;-74
2021/12/02 08:43:18;;;;;;;14.98;5.80;;;;;;;1.27;100.00;100014.34;5270538;28;20040;-75
2021/12/02 08:45:50;;;;;;;9.13;4.07;;;;;;;1.40;100.00;100008.53;5268617;28;20029;-75
2021/12/02 08:48:21;;;;;;;12.43;3.83;;;;;;;1.47;100.00;100018.88;5251914;28;20036;-75
2021/12/02 08:50:52;;;;;;;8.87;3.60;;;;;;;1.68;100.00;100033.69;5269276;28;20078;-73
2021/12/02 08:53:24;;;;;;;8.47;3.27;;;;;;;1.63;100.00;100041.34;5270773;28;20111;-72
2021/12/02 08:55:55;;;;;;;8.17;3.10;;;;;;;1.76;100.00;100039.75;5269915;28;20025;-79
2021/12/02 08:58:26;;;;;;;6.33;2.43;;;;;;;2.03;100.00;100053.72;5268005;28;20048;-81
2021/12/02 09:00:58;;;;;;;5.27;2.70;;;;;;;2.30;99.97;100069.44;5267136;28;20112;-78
2021/12/02 09:03:29;;;;;;;9.10;2.80;;;;;;;2.45;99.71;100070.44;5267441;28;20025;-84
2021/12/02 09:06:01;;;;;;;5.57;2.37;;;;;;;2.56;98.33;100073.97;5267640;28;20025;-73
2021/12/02 09:08:32;;;;;;;10.67;2.70;;;;;;;2.76;98.66;100076.69;5265284;28;20020;-76
2021/12/02 09:11:03;;;;;;;7.67;2.90;;;;;;;2.74;97.48;100081.81;5270262;28;20033;-85
2021/12/02 09:13:35;;;;;;;9.30;2.23;;;;;;;2.68;96.44;100079.19;5263044;28;20040;-76
2021/12/02 09:16:06;;;;;;;8.90;2.50;;;;;;;2.77;96.15;100092.97;5263313;28;20431;-73
2021/12/02 09:18:38;;;;;;;8.67;2.57;;;;;;;2.68;95.10;100092.06;5266402;28;20027;-75
2021/12/02 09:21:09;;;;;;;6.33;2.57;;;;;;;2.55;95.29;100093.66;5270397;28;20960;-73
2021/12/02 09:23:40;;;;;;;11.30;2.87;;;;;;;2.42;95.60;100089.28;5268619;28;20071;-79
2021/12/02 09:26:12;;;;;;;7.13;2.00;;;;;;;2.31;94.93;100096.03;5262262;28;20032;-75
2021/12/02 09:28:50;;;;;;;13.10;4.53;;;;;;;2.21;95.36;100104.47;5267201;28;20025;-75
2021/12/02 09:31:23;;;;;;;9.75;2.83;;;;;;;2.12;95.16;100108.69;5271015;28;20083;-72
2021/12/02 09:33:54;;;;;;;10.35;2.80;;;;;;;2.05;93.98;100113.75;5270358;28;20040;-73
2021/12/02 09:36:26;;;;;;;11.13;3.33;;;;;;;1.97;94.67;100105.97;5271914;28;20029;-73
2021/12/02 09:38:57;;;;;;;9.17;3.10;;;;;;;1.95;95.96;100105.09;5270889;28;20590;-87
2021/12/02 09:41:29;;;;;;;8.13;2.50;;;;;;;1.97;95.84;100113.66;5270497;28;20032;-73
2021/12/02 09:44:01;;;;;;;9.47;2.60;;;;;;;2.00;96.32;100108.56;5271102;28;20047;-83
2021/12/02 09:46:33;;;;;;;10.85;2.60;;;;;;;2.08;96.59;100108.66;5269072;28;20098;-73
2021/12/02 09:49:06;;;;;;;10.50;2.33;;;;;;;2.13;96.53;100114.72;5267389;28;20029;-87
2021/12/02 09:54:24;;;;;;;10.43;2.47;;;;;;;2.16;95.42;100112.16;5272162;28;20059;-73
2021/12/02 09:56:59;;;;;;;7.25;2.53;;;;;;;2.20;95.57;100111.34;5272341;28;20108;-75
2021/12/02 09:59:39;;;;;;;8.25;2.80;;;;;;;2.27;95.85;100109.69;5273395;28;20025;-74
2021/12/02 10:02:15;;;;;;;9.25;2.38;;;;;;;2.32;95.29;100113.19;5271987;28;20026;-89
2021/12/02 10:13:00;;;;;;;7.72;2.55;;;;;;;3.29;90.48;100125.13;5273643;28;20396;-76
2021/12/02 10:15:35;;;;;;;9.50;2.67;;;;;;;3.49;91.24;100116.63;5270049;28;20021;-77
2021/12/02 10:18:12;;;;;;;11.38;2.80;;;;;;;3.67;89.75;100122.75;5269943;28;20028;-75
2021/12/02 10:20:48;;;;;;;10.35;3.55;;;;;;;3.58;90.29;100121.00;5268074;28;20039;-79
2021/12/02 10:26:00;;;;;;;6.57;2.17;;;;;;;3.33;90.51;100135.44;5268863;28;20009;-81
2021/12/02 10:28:41;;;;;;;8.45;2.72;;;;;;;3.23;90.20;100137.09;5272190;28;20107;-79
2021/12/02 10:31:19;;;;;;;8.75;2.58;;;;;;;3.24;91.49;100144.84;5276453;28;20029;-71
2021/12/02 10:33:57;;;;;;;8.23;2.88;;;;;;;3.03;91.38;100135.25;5273800;28;20476;-75
2021/12/02 10:36:32;;;;;;;8.23;2.63;;;;;;;2.95;92.54;100134.31;5276136;28;20021;-73
2021/12/02 10:39:09;;;;;;;6.47;2.50;;;;;;;2.79;92.24;100135.06;5273223;28;20029;-71
2021/12/02 10:41:43;;;;;;;6.70;2.30;;;;;;;2.65;92.86;100138.34;5274280;28;20342;-74
2021/12/02 10:44:23;;;;;;;9.25;2.90;;;;;;;2.67;93.61;100146.97;5274302;28;20025;-76
2021/12/02 10:47:02;;;;;;;11.05;3.38;;;;;;;2.62;93.06;100158.91;5270365;28;20033;-73
2021/12/02 10:49:39;;;;;;;;;;;;;;;2.68;93.42;100155.53;5272816;28;20400;-76
2021/12/02 10:52:22;;;;;;;10.88;2.58;;;;;;;2.74;94.01;100156.47;5272968;28;19912;-72
2021/12/02 10:55:13;;;;;;;10.35;2.88;;;;;;;2.75;93.37;100162.47;5272708;28;20044;-72
2021/12/02 10:57:56;;;;;;;9.93;3.05;;;;;;;2.78;93.47;100154.75;5274602;28;20047;-75
2021/12/02 11:00:35;;;;;;;8.25;2.75;;;;;;;2.96;94.21;100169.50;5274173;28;20026;-77
2021/12/02 11:03:09;;;;;;;11.48;2.78;;;;;;;3.00;93.10;100154.97;5274325;28;20460;-70
2021/12/02 11:05:45;;;;;;;11.65;3.30;;;;;;;3.05;92.86;100161.84;5273847;28;20017;-73
2021/12/02 11:08:18;;;;;;;7.82;3.17;;;;;;;3.31;93.30;100160.34;5277061;28;20025;-75
2021/12/02 11:10:50;;;;;;;11.20;3.17;;;;;;;3.46;91.89;100170.72;5274294;28;20483;-79
2021/12/02 11:13:25;;;;;;;11.38;2.90;;;;;;;3.44;91.21;100169.84;5274278;28;20020;-81
2021/12/02 11:15:58;;;;;;;10.57;2.75;;;;;;;3.35;90.70;100174.94;5270195;28;20036;-73
2021/12/02 11:18:33;;;;;;;6.68;2.72;;;;;;;3.11;91.50;100179.09;5266343;28;20059;-86
2021/12/02 11:21:05;;;;;;;7.68;2.83;;;;;;;3.15;92.11;100179.97;5268302;28;20033;-75
2021/12/02 11:23:45;;;;;;;10.77;3.27;;;;;;;3.29;92.98;100179.22;5274080;28;20025;-73
2021/12/02 11:26:17;;;;;;;9.65;2.92;;;;;;;3.34;90.77;100165.50;5272579;28;20056;-77
2021/12/02 11:28:49;;;;;;;11.35;3.08;;;;;;;3.36;91.66;100176.69;5273105;28;20032;-80
2021/12/02 11:31:22;;;;;;;12.60;3.73;;;;;;;3.22;90.99;100180.03;5269515;28;20033;-85
2021/12/02 11:33:53;;;;;;;11.35;2.55;;;;;;;3.16;91.80;100177.41;5271572;28;20123;-72
2021/12/02 11:36:30;;;;;;;38.03;5.50;;;;;;;4.56;89.86;100167.75;5256624;28;20056;-74
2021/12/02 11:39:05;;;;;;;5.57;2.15;;;;;;;6.02;82.61;100174.53;5272338;28;20388;-86
2021/12/02 11:41:36;;;;;;;10.18;3.20;;;;;;;5.64;79.59;100175.47;5252333;28;20033;-85
2021/12/02 11:44:08;;;;;;;9.73;3.17;;;;;;;4.80;81.49;100185.84;5268575;28;20385;-80
2021/12/02 11:46:40;;;;;;;9.43;2.50;;;;;;;4.71;83.50;100184.97;5275672;28;20029;-73
2021/12/02 11:49:11;;;;;;;5.95;2.10;;;;;;;4.52;83.87;100191.84;5272194;28;20381;-70
2021/12/02 11:51:43;;;;;;;6.30;2.20;;;;;;;4.24;83.94;100195.19;5266236;28;20037;-85
2021/12/02 11:54:14;;;;;;;12.40;2.83;;;;;;;4.17;85.31;100189.13;5264404;28;20079;-74
2021/12/02 11:56:46;;;;;;;6.93;2.10;;;;;;;4.20;85.37;100184.88;5263739;28;20103;-74
2021/12/02 11:59:17;;;;;;;7.03;1.97;;;;;;;4.23;84.86;100185.72;5266858;28;20527;-76
2021/12/02 12:01:55;;;;;;;3.37;1.50;;;;;;;4.00;85.59;100171.88;5265193;28;20043;-79
2021/12/02 12:04:27;;;;;;;2.53;1.02;;;;;;;3.56;84.58;100169.94;5271895;28;20036;-73
2021/12/02 12:07:12;;;;;;;1.23;0.97;;;;;;;3.18;88.21;100169.69;5270493;28;20021;-72
2021/12/02 12:09:43;;;;;;;2.08;0.93;;;;;;;2.93;88.79;100166.94;5254876;28;20021;-73
2021/12/02 12:12:15;;;;;;;2.67;1.13;;;;;;;2.76;89.75;100159.03;5255544;28;20033;-78
2021/12/02 12:14:49;;;;;;;2.72;1.35;;;;;;;2.70;91.19;100167.56;5269892;28;20491;-77
2021/12/02 12:17:20;;;;;;;2.80;1.30;;;;;;;2.72;90.85;100167.56;5274916;28;20145;-73
2021/12/02 12:19:52;;;;;;;2.90;1.00;;;;;;;2.80;90.88;100175.38;5270479;28;20080;-73
2021/12/02 12:22:30;;;;;;;1.70;1.10;;;;;;;2.75;90.75;100177.91;5271109;28;20464;-79
2021/12/02 12:25:07;;;;;;;7.85;1.60;;;;;;;2.88;91.69;100191.75;5274619;28;20060;-75
2021/12/02 12:27:39;;;;;;;5.00;1.45;;;;;;;2.96;91.36;100184.94;5274487;28;20021;-79